createdAt,value
2017-11-23T00:00:23.549Z,996.25
2017-11-23T00:01:23.569Z,996.28
2017-11-23T00:02:23.587Z,996.25
2017-11-23T00:03:23.607Z,996.22
2017-11-23T00:04:23.627Z,996.15
2017-11-23T00:05:23.645Z,996.12
2017-11-23T00:06:23.664Z,996.10
2017-11-23T00:07:23.683Z,996.11
2017-11-23T00:08:23.705Z,996.21
2017-11-23T00:09:23.723Z,996.22
2017-11-23T00:10:23.741Z,996.20
2017-11-23T00:11:23.759Z,996.15
2017-11-23T00:12:23.779Z,996.14
2017-11-23T00:13:23.799Z,996.12
2017-11-23T00:14:23.817Z,996.14
2017-11-23T00:15:23.836Z,996.15
2017-11-23T00:16:23.855Z,996.09
2017-11-23T00:17:23.874Z,996.10
2017-11-23T00:18:23.893Z,996.06
2017-11-23T00:19:23.911Z,996.05
2017-11-23T00:20:23.933Z,996.01
2017-11-23T00:21:23.950Z,996.02
2017-11-23T00:22:23.973Z,995.99
2017-11-23T00:23:23.988Z,996.01
2017-11-23T00:24:24.010Z,996.00
2017-11-23T00:25:24.027Z,996.07
2017-11-23T00:26:24.045Z,996.00
2017-11-23T00:27:24.066Z,995.98
2017-11-23T00:28:24.083Z,995.99
2017-11-23T00:29:24.103Z,996.03
2017-11-23T00:30:24.120Z,996.03
2017-11-23T00:31:24.141Z,996.07
2017-11-23T00:32:24.160Z,996.21
2017-11-23T00:33:24.178Z,996.19
2017-11-23T00:34:24.198Z,996.13
2017-11-23T00:35:24.217Z,996.14
2017-11-23T00:36:24.236Z,996.28
2017-11-23T00:37:24.256Z,996.24
2017-11-23T00:38:24.273Z,996.25
2017-11-23T00:39:24.295Z,996.25
2017-11-23T00:40:24.312Z,996.30
2017-11-23T00:41:24.332Z,996.27
2017-11-23T00:42:24.349Z,996.28
2017-11-23T00:43:24.368Z,996.29
2017-11-23T00:44:24.389Z,996.28
2017-11-23T00:45:24.407Z,996.22
2017-11-23T00:46:24.428Z,996.18
2017-11-23T00:47:24.445Z,996.16
2017-11-23T00:48:24.465Z,996.14
2017-11-23T00:49:24.485Z,996.13
2017-11-23T00:50:24.505Z,996.11
2017-11-23T00:51:24.521Z,996.12
2017-11-23T00:52:24.540Z,996.15
2017-11-23T00:53:24.561Z,996.18
2017-11-23T00:54:24.579Z,996.14
2017-11-23T00:55:24.598Z,996.10
2017-11-23T00:56:24.622Z,996.07
2017-11-23T00:57:24.637Z,996.04
2017-11-23T00:58:24.656Z,996.07
2017-11-23T00:59:24.681Z,996.06
2017-11-23T01:00:24.694Z,996.04
2017-11-23T01:01:24.712Z,996.02
2017-11-23T01:02:24.733Z,996.03
2017-11-23T01:03:24.750Z,996.05
2017-11-23T01:04:24.770Z,996.08
2017-11-23T01:05:24.792Z,996.06
2017-11-23T01:06:24.807Z,996.00
2017-11-23T01:07:24.826Z,996.00
2017-11-23T01:08:24.846Z,995.99
2017-11-23T01:09:24.865Z,995.98
2017-11-23T01:10:24.922Z,995.97
2017-11-23T01:11:24.903Z,995.95
2017-11-23T01:12:24.922Z,995.92
2017-11-23T01:13:24.942Z,995.94
2017-11-23T01:14:24.965Z,995.95
2017-11-23T01:15:24.979Z,995.94
2017-11-23T01:16:25.001Z,995.98
2017-11-23T01:17:25.017Z,995.94
2017-11-23T01:18:25.036Z,995.87
2017-11-23T01:19:25.056Z,995.92
2017-11-23T01:20:25.075Z,995.89
2017-11-23T01:21:25.097Z,995.89
2017-11-23T01:22:25.112Z,995.88
2017-11-23T01:23:25.131Z,995.86
2017-11-23T01:24:25.152Z,995.90
2017-11-23T01:25:25.170Z,995.90
2017-11-23T01:26:25.189Z,995.92
2017-11-23T01:27:25.208Z,995.93
2017-11-23T01:28:25.232Z,995.87
2017-11-23T01:29:25.246Z,995.87
2017-11-23T01:30:25.266Z,995.79
2017-11-23T01:31:25.285Z,995.83
2017-11-23T01:32:25.304Z,995.81
2017-11-23T01:33:25.322Z,995.71
2017-11-23T01:34:25.341Z,995.71
2017-11-23T01:35:25.361Z,995.69
2017-11-23T01:36:25.379Z,995.78
2017-11-23T01:37:25.404Z,995.73
2017-11-23T01:38:25.418Z,995.77
2017-11-23T01:39:25.437Z,995.73
2017-11-23T01:40:25.455Z,995.72
2017-11-23T01:41:25.475Z,995.73
2017-11-23T01:42:25.492Z,995.73
2017-11-23T01:43:25.512Z,995.71
2017-11-23T01:44:25.537Z,995.66
2017-11-23T01:45:25.552Z,995.66
2017-11-23T01:46:25.569Z,995.64
2017-11-23T01:47:25.589Z,995.66
2017-11-23T01:48:25.610Z,995.63
2017-11-23T01:49:25.628Z,995.62
2017-11-23T01:50:25.646Z,995.64
2017-11-23T01:51:25.666Z,995.66
2017-11-23T01:52:25.694Z,995.69
2017-11-23T01:53:25.704Z,995.64
2017-11-23T01:54:25.723Z,995.61
2017-11-23T01:55:25.742Z,995.54
2017-11-23T01:56:25.761Z,995.52
2017-11-23T01:57:25.780Z,995.50
2017-11-23T01:58:25.799Z,995.48
2017-11-23T01:59:25.819Z,995.48
2017-11-23T02:00:25.850Z,995.44
2017-11-23T02:01:25.862Z,995.42
2017-11-23T02:02:25.875Z,995.39
2017-11-23T02:03:25.894Z,995.33
2017-11-23T02:04:25.913Z,995.33
2017-11-23T02:05:25.932Z,995.35
2017-11-23T02:06:25.951Z,995.27
2017-11-23T02:07:25.971Z,995.30
2017-11-23T02:08:25.990Z,995.32
2017-11-23T02:09:26.008Z,995.39
2017-11-23T02:10:26.031Z,995.43
2017-11-23T02:11:26.045Z,995.40
2017-11-23T02:12:26.065Z,995.44
2017-11-23T02:13:26.093Z,995.37
2017-11-23T02:14:26.103Z,995.40
2017-11-23T02:15:26.122Z,995.33
2017-11-23T02:16:26.141Z,995.33
2017-11-23T02:17:26.162Z,995.29
2017-11-23T02:18:26.179Z,995.28
2017-11-23T02:19:26.199Z,995.25
2017-11-23T02:20:26.219Z,995.22
2017-11-23T02:21:26.237Z,995.20
2017-11-23T02:22:26.255Z,995.15
2017-11-23T02:23:26.475Z,995.13
2017-11-23T02:24:26.295Z,995.19
2017-11-23T02:25:26.314Z,995.13
2017-11-23T02:26:26.332Z,995.11
2017-11-23T02:27:26.355Z,995.09
2017-11-23T02:28:26.371Z,995.12
2017-11-23T02:29:26.391Z,995.13
2017-11-23T02:30:26.409Z,995.11
2017-11-23T02:31:26.430Z,995.07
2017-11-23T02:32:26.457Z,995.14
2017-11-23T02:33:26.468Z,995.10
2017-11-23T02:34:26.487Z,995.08
2017-11-23T02:35:26.504Z,995.00
2017-11-23T02:36:26.530Z,994.99
2017-11-23T02:37:26.544Z,994.97
2017-11-23T02:38:26.563Z,995.03
2017-11-23T02:39:26.582Z,995.00
2017-11-23T02:40:26.602Z,995.01
2017-11-23T02:41:26.631Z,995.02
2017-11-23T02:42:26.643Z,995.00
2017-11-23T02:43:26.661Z,994.97
2017-11-23T02:44:26.680Z,994.98
2017-11-23T02:45:26.699Z,994.96
2017-11-23T02:46:26.717Z,994.92
2017-11-23T02:47:26.737Z,994.91
2017-11-23T02:48:26.757Z,994.92
2017-11-23T02:49:26.775Z,994.90
2017-11-23T02:50:26.796Z,994.91
2017-11-23T02:51:26.814Z,994.94
2017-11-23T02:52:26.884Z,994.88
2017-11-23T02:53:26.853Z,994.86
2017-11-23T02:54:26.871Z,994.83
2017-11-23T02:55:26.891Z,994.86
2017-11-23T02:56:26.911Z,994.82
2017-11-23T02:57:26.935Z,994.84
2017-11-23T02:58:26.948Z,994.92
2017-11-23T02:59:26.968Z,994.87
2017-11-23T03:00:26.988Z,994.89
2017-11-23T03:01:27.007Z,994.87
2017-11-23T03:02:27.026Z,994.90
2017-11-23T03:03:27.045Z,994.84
2017-11-23T03:04:27.066Z,994.86
2017-11-23T03:05:27.085Z,994.84
2017-11-23T03:06:27.103Z,994.83
2017-11-23T03:07:27.124Z,994.79
2017-11-23T03:08:27.146Z,994.86
2017-11-23T03:09:27.162Z,994.80
2017-11-23T03:10:27.189Z,994.80
2017-11-23T03:11:27.201Z,994.83
2017-11-23T03:12:27.221Z,994.83
2017-11-23T03:13:27.242Z,994.81
2017-11-23T03:14:27.259Z,994.78
2017-11-23T03:15:27.279Z,994.78
2017-11-23T03:16:27.300Z,994.75
2017-11-23T03:17:27.319Z,994.74
2017-11-23T03:18:27.336Z,994.72
2017-11-23T03:19:27.356Z,994.66
2017-11-23T03:20:27.376Z,994.66
2017-11-23T03:21:27.406Z,994.59
2017-11-23T03:22:27.414Z,994.55
2017-11-23T03:23:27.435Z,994.59
2017-11-23T03:24:27.454Z,994.57
2017-11-23T03:25:27.474Z,994.57
2017-11-23T03:26:27.493Z,994.59
2017-11-23T03:27:27.513Z,994.55
2017-11-23T03:28:27.535Z,994.55
2017-11-23T03:29:27.557Z,994.50
2017-11-23T03:30:27.577Z,994.53
2017-11-23T03:31:27.590Z,994.47
2017-11-23T03:32:27.609Z,994.52
2017-11-23T03:33:27.629Z,994.55
2017-11-23T03:34:27.649Z,994.51
2017-11-23T03:35:27.668Z,994.56
2017-11-23T03:36:27.687Z,994.56
2017-11-23T03:37:27.707Z,994.52
2017-11-23T03:38:27.733Z,994.48
2017-11-23T03:39:27.747Z,994.55
2017-11-23T03:40:27.766Z,994.56
2017-11-23T03:41:27.785Z,994.52
2017-11-23T03:42:27.805Z,994.51
2017-11-23T03:43:27.825Z,994.47
2017-11-23T03:44:27.844Z,994.44
2017-11-23T03:45:27.865Z,994.43
2017-11-23T03:46:27.881Z,994.44
2017-11-23T03:47:27.905Z,994.40
2017-11-23T03:48:27.926Z,994.33
2017-11-23T03:49:27.942Z,994.38
2017-11-23T03:50:27.961Z,994.29
2017-11-23T03:51:27.983Z,994.34
2017-11-23T03:52:28.001Z,994.33
2017-11-23T03:53:28.021Z,994.31
2017-11-23T03:54:28.040Z,994.27
2017-11-23T03:55:28.060Z,994.29
2017-11-23T03:56:28.079Z,994.33
2017-11-23T03:57:28.104Z,994.33
2017-11-23T03:58:28.119Z,994.39
2017-11-23T03:59:28.137Z,994.50
2017-11-23T04:00:28.157Z,994.56
2017-11-23T04:01:28.177Z,994.60
2017-11-23T04:02:28.196Z,994.58
2017-11-23T04:03:28.216Z,994.53
2017-11-23T04:04:28.235Z,994.38
2017-11-23T04:05:28.256Z,994.40
2017-11-23T04:06:28.274Z,994.45
2017-11-23T04:07:28.295Z,994.44
2017-11-23T04:08:28.314Z,994.38
2017-11-23T04:09:28.334Z,994.46
2017-11-23T04:10:28.354Z,994.52
2017-11-23T04:11:28.373Z,994.48
2017-11-23T04:12:28.393Z,994.44
2017-11-23T04:13:28.427Z,994.42
2017-11-23T04:14:28.436Z,994.37
2017-11-23T04:15:28.452Z,994.29
2017-11-23T04:16:28.472Z,994.26
2017-11-23T04:17:28.493Z,994.27
2017-11-23T04:18:28.510Z,994.28
2017-11-23T04:19:28.530Z,994.21
2017-11-23T04:20:28.552Z,994.17
2017-11-23T04:21:28.570Z,994.18
2017-11-23T04:22:28.589Z,994.18
2017-11-23T04:23:28.610Z,994.13
2017-11-23T04:24:28.629Z,994.16
2017-11-23T04:25:28.654Z,994.17
2017-11-23T04:26:28.669Z,994.15
2017-11-23T04:27:28.689Z,994.15
2017-11-23T04:28:28.709Z,994.19
2017-11-23T04:29:28.728Z,994.21
2017-11-23T04:30:28.747Z,994.24
2017-11-23T04:31:28.766Z,994.29
2017-11-23T04:32:28.788Z,994.26
2017-11-23T04:33:28.807Z,994.25
2017-11-23T04:34:28.826Z,994.17
2017-11-23T04:35:28.849Z,994.13
2017-11-23T04:36:28.870Z,994.11
2017-11-23T04:37:28.885Z,994.11
2017-11-23T04:38:28.905Z,994.11
2017-11-23T04:39:28.926Z,994.04
2017-11-23T04:40:28.945Z,994.07
2017-11-23T04:41:28.966Z,994.03
2017-11-23T04:42:28.985Z,994.07
2017-11-23T04:43:29.003Z,994.02
2017-11-23T04:44:29.032Z,994.05
2017-11-23T04:45:29.043Z,994.06
2017-11-23T04:46:29.066Z,994.10
2017-11-23T04:47:29.083Z,994.07
2017-11-23T04:48:29.102Z,994.14
2017-11-23T04:49:29.122Z,994.12
2017-11-23T04:50:29.141Z,994.09
2017-11-23T04:51:29.162Z,994.03
2017-11-23T04:52:29.180Z,994.12
2017-11-23T04:53:29.202Z,994.06
2017-11-23T04:54:29.222Z,994.14
2017-11-23T04:55:29.239Z,994.17
2017-11-23T04:56:29.261Z,994.08
2017-11-23T04:57:29.281Z,994.11
2017-11-23T04:58:29.299Z,994.09
2017-11-23T04:59:29.320Z,994.13
2017-11-23T05:00:29.341Z,994.14
2017-11-23T05:01:29.359Z,994.25
2017-11-23T05:02:29.378Z,994.23
2017-11-23T05:03:29.399Z,994.21
2017-11-23T05:04:29.418Z,994.11
2017-11-23T05:05:29.437Z,994.07
2017-11-23T05:06:29.464Z,994.04
2017-11-23T05:07:29.478Z,994.02
2017-11-23T05:08:29.496Z,994.03
2017-11-23T05:09:29.523Z,994.04
2017-11-23T05:10:29.536Z,994.16
2017-11-23T05:11:29.556Z,994.18
2017-11-23T05:12:29.575Z,994.15
2017-11-23T05:13:29.597Z,994.16
2017-11-23T05:14:29.615Z,994.09
2017-11-23T05:15:29.634Z,994.03
2017-11-23T05:16:29.806Z,993.99
2017-11-23T05:17:29.676Z,994.01
2017-11-23T05:18:29.700Z,994.04
2017-11-23T05:19:29.714Z,993.99
2017-11-23T05:20:29.735Z,993.95
2017-11-23T05:21:29.755Z,993.97
2017-11-23T05:22:29.776Z,994.00
2017-11-23T05:23:29.793Z,993.98
2017-11-23T05:24:29.814Z,993.96
2017-11-23T05:25:29.835Z,993.91
2017-11-23T05:26:29.852Z,993.90
2017-11-23T05:27:29.873Z,993.92
2017-11-23T05:28:29.892Z,993.95
2017-11-23T05:29:29.913Z,993.95
2017-11-23T05:30:29.933Z,993.96
2017-11-23T05:31:29.952Z,994.04
2017-11-23T05:32:29.974Z,993.91
2017-11-23T05:33:29.993Z,994.00
2017-11-23T05:34:30.013Z,994.09
2017-11-23T05:35:30.033Z,993.91
2017-11-23T05:36:30.053Z,993.88
2017-11-23T05:37:30.077Z,993.88
2017-11-23T05:38:30.091Z,993.87
2017-11-23T05:39:30.112Z,993.94
2017-11-23T05:40:30.134Z,993.94
2017-11-23T05:41:30.152Z,994.00
2017-11-23T05:42:30.171Z,993.94
2017-11-23T05:43:30.191Z,993.95
2017-11-23T05:44:30.212Z,993.87
2017-11-23T05:45:30.233Z,993.89
2017-11-23T05:46:30.252Z,993.91
2017-11-23T05:47:30.272Z,993.95
2017-11-23T05:48:30.293Z,993.93
2017-11-23T05:49:30.313Z,993.94
2017-11-23T05:50:30.331Z,993.94
2017-11-23T05:51:30.353Z,993.96
2017-11-23T05:52:30.372Z,994.00
2017-11-23T05:53:30.405Z,993.99
2017-11-23T05:54:30.411Z,993.96
2017-11-23T05:55:30.431Z,994.05
2017-11-23T05:56:30.452Z,994.01
2017-11-23T05:57:30.473Z,994.00
2017-11-23T05:58:30.490Z,994.03
2017-11-23T05:59:30.511Z,994.01
2017-11-23T06:00:30.536Z,994.02
2017-11-23T06:01:30.552Z,994.00
2017-11-23T06:02:30.570Z,994.00
2017-11-23T06:03:30.591Z,994.02
2017-11-23T06:04:30.612Z,994.00
2017-11-23T06:05:30.633Z,993.90
2017-11-23T06:06:30.670Z,993.97
2017-11-23T06:07:30.671Z,993.94
2017-11-23T06:08:30.692Z,993.93
2017-11-23T06:09:30.712Z,993.93
2017-11-23T06:10:30.732Z,993.90
2017-11-23T06:11:30.751Z,993.93
2017-11-23T06:12:30.773Z,993.95
2017-11-23T06:13:30.793Z,993.88
2017-11-23T06:14:30.811Z,993.88
2017-11-23T06:15:30.841Z,993.82
2017-11-23T06:16:30.869Z,993.80
2017-11-23T06:17:30.871Z,993.79
2017-11-23T06:18:30.892Z,993.84
2017-11-23T06:19:30.912Z,993.82
2017-11-23T06:20:30.931Z,993.82
2017-11-23T06:21:30.952Z,993.88
2017-11-23T06:22:30.972Z,993.89
2017-11-23T06:23:30.993Z,993.83
2017-11-23T06:24:31.014Z,993.93
2017-11-23T06:25:31.034Z,993.98
2017-11-23T06:26:31.053Z,993.93
2017-11-23T06:27:31.073Z,993.93
2017-11-23T06:28:31.094Z,993.88
2017-11-23T06:29:31.113Z,993.83
2017-11-23T06:30:31.141Z,993.92
2017-11-23T06:31:31.153Z,993.93
2017-11-23T06:32:31.175Z,993.87
2017-11-23T06:33:31.197Z,993.89
2017-11-23T06:34:31.214Z,993.78
2017-11-23T06:35:31.234Z,993.64
2017-11-23T06:36:31.255Z,993.72
2017-11-23T06:37:31.275Z,993.74
2017-11-23T06:38:31.294Z,993.73
2017-11-23T06:39:31.316Z,993.70
2017-11-23T06:40:31.336Z,993.68
2017-11-23T06:41:31.356Z,993.66
2017-11-23T06:42:31.376Z,993.70
2017-11-23T06:43:31.396Z,993.70
2017-11-23T06:44:31.417Z,993.75
2017-11-23T06:45:31.441Z,993.71
2017-11-23T06:46:31.458Z,993.67
2017-11-23T06:47:31.479Z,993.73
2017-11-23T06:48:31.498Z,993.71
2017-11-23T06:49:31.519Z,993.67
2017-11-23T06:50:31.538Z,993.70
2017-11-23T06:51:31.560Z,993.70
2017-11-23T06:52:31.579Z,993.64
2017-11-23T06:53:31.600Z,993.73
2017-11-23T06:54:31.619Z,993.73
2017-11-23T06:55:31.641Z,993.72
2017-11-23T06:56:31.661Z,993.73
2017-11-23T06:57:31.682Z,993.67
2017-11-23T06:58:31.703Z,993.69
2017-11-23T06:59:31.722Z,993.62
2017-11-23T07:00:31.743Z,993.67
2017-11-23T07:01:31.769Z,993.71
2017-11-23T07:02:31.796Z,993.62
2017-11-23T07:03:31.804Z,993.61
2017-11-23T07:04:31.825Z,993.59
2017-11-23T07:05:31.846Z,993.57
2017-11-23T07:06:31.865Z,993.53
2017-11-23T07:07:31.886Z,993.54
2017-11-23T07:08:31.907Z,993.50
2017-11-23T07:09:31.927Z,993.52
2017-11-23T07:10:31.947Z,993.59
2017-11-23T07:11:31.969Z,993.56
2017-11-23T07:12:31.988Z,993.59
2017-11-23T07:13:32.011Z,993.61
2017-11-23T07:14:32.030Z,993.62
2017-11-23T07:15:32.050Z,993.57
2017-11-23T07:16:32.072Z,993.60
2017-11-23T07:17:32.093Z,993.55
2017-11-23T07:18:32.112Z,993.57
2017-11-23T07:19:32.134Z,993.64
2017-11-23T07:20:32.154Z,993.53
2017-11-23T07:21:32.175Z,993.57
2017-11-23T07:22:32.196Z,993.49
2017-11-23T07:23:32.216Z,993.48
2017-11-23T07:24:32.239Z,993.51
2017-11-23T07:25:32.258Z,993.55
2017-11-23T07:26:32.278Z,993.50
2017-11-23T07:27:32.298Z,993.52
2017-11-23T07:28:32.319Z,993.54
2017-11-23T07:29:32.341Z,993.50
2017-11-23T07:30:32.366Z,993.47
2017-11-23T07:31:32.382Z,993.51
2017-11-23T07:32:32.402Z,993.46
2017-11-23T07:33:32.423Z,993.53
2017-11-23T07:34:32.443Z,993.50
2017-11-23T07:35:32.464Z,993.45
2017-11-23T07:36:32.491Z,993.48
2017-11-23T07:37:32.506Z,993.59
2017-11-23T07:38:32.526Z,993.54
2017-11-23T07:39:32.565Z,993.46
2017-11-23T07:40:32.570Z,993.45
2017-11-23T07:41:32.589Z,993.59
2017-11-23T07:42:32.616Z,993.54
2017-11-23T07:43:32.629Z,993.55
2017-11-23T07:44:32.652Z,993.56
2017-11-23T07:45:32.673Z,993.57
2017-11-23T07:46:32.697Z,993.59
2017-11-23T07:47:32.714Z,993.42
2017-11-23T07:48:32.736Z,993.54
2017-11-23T07:49:32.756Z,993.48
2017-11-23T07:50:32.777Z,993.58
2017-11-23T07:51:32.799Z,993.62
2017-11-23T07:52:32.819Z,993.62
2017-11-23T07:53:32.841Z,993.56
2017-11-23T07:54:32.861Z,993.55
2017-11-23T07:55:32.889Z,993.59
2017-11-23T07:56:32.902Z,993.58
2017-11-23T07:57:32.923Z,993.57
2017-11-23T07:58:32.955Z,993.57
2017-11-23T07:59:32.965Z,993.59
2017-11-23T08:00:32.985Z,993.63
2017-11-23T08:01:33.010Z,993.69
2017-11-23T08:02:33.026Z,993.61
2017-11-23T08:03:33.049Z,993.55
2017-11-23T08:04:33.068Z,993.70
2017-11-23T08:05:33.090Z,993.64
2017-11-23T08:06:33.109Z,993.71
2017-11-23T08:07:33.131Z,993.58
2017-11-23T08:08:33.151Z,993.65
2017-11-23T08:09:33.173Z,993.62
2017-11-23T08:10:33.193Z,993.66
2017-11-23T08:11:33.216Z,993.56
2017-11-23T08:12:33.235Z,993.51
2017-11-23T08:13:33.256Z,993.61
2017-11-23T08:14:33.277Z,993.47
2017-11-23T08:15:33.298Z,993.45
2017-11-23T08:16:33.321Z,993.60
2017-11-23T08:17:33.340Z,993.71
2017-11-23T08:18:33.363Z,993.68
2017-11-23T08:19:33.384Z,993.72
2017-11-23T08:20:33.405Z,993.74
2017-11-23T08:21:33.425Z,993.69
2017-11-23T08:22:33.447Z,993.63
2017-11-23T08:23:33.468Z,993.69
2017-11-23T08:24:33.488Z,993.71
2017-11-23T08:25:33.510Z,993.78
2017-11-23T08:26:33.534Z,993.80
2017-11-23T08:27:33.553Z,993.72
2017-11-23T08:28:33.575Z,993.64
2017-11-23T08:29:33.595Z,993.64
2017-11-23T08:30:33.615Z,993.61
2017-11-23T08:31:33.636Z,993.62
2017-11-23T08:32:33.660Z,993.63
2017-11-23T08:33:33.682Z,993.70
2017-11-23T08:34:33.704Z,993.71
2017-11-23T08:35:33.734Z,993.72
2017-11-23T08:36:33.745Z,993.74
2017-11-23T08:37:33.766Z,993.74
2017-11-23T08:38:33.786Z,993.65
2017-11-23T08:39:33.807Z,993.77
2017-11-23T08:40:33.836Z,993.71
2017-11-23T08:41:33.851Z,993.83
2017-11-23T08:42:33.882Z,993.71
2017-11-23T08:43:33.894Z,993.80
2017-11-23T08:44:33.916Z,993.80
2017-11-23T08:45:33.938Z,993.69
2017-11-23T08:46:33.959Z,993.79
2017-11-23T08:47:33.980Z,993.76
2017-11-23T08:48:34.002Z,993.82
2017-11-23T08:49:34.024Z,993.85
2017-11-23T08:50:34.049Z,993.77
2017-11-23T08:51:34.066Z,993.79
2017-11-23T08:52:34.088Z,993.76
2017-11-23T08:53:34.109Z,993.79
2017-11-23T08:54:34.139Z,993.75
2017-11-23T08:55:34.151Z,993.77
2017-11-23T08:56:34.173Z,993.70
2017-11-23T08:57:34.195Z,993.70
2017-11-23T08:58:34.217Z,993.73
2017-11-23T08:59:34.238Z,993.74
2017-11-23T09:00:34.266Z,993.76
2017-11-23T09:01:34.281Z,993.75
2017-11-23T09:02:34.303Z,993.67
2017-11-23T09:03:34.324Z,993.77
2017-11-23T09:04:34.346Z,993.67
2017-11-23T09:05:34.370Z,993.79
2017-11-23T09:06:34.390Z,993.74
2017-11-23T09:07:34.410Z,993.79
2017-11-23T09:08:34.450Z,993.78
2017-11-23T09:09:34.455Z,993.73
2017-11-23T09:10:34.477Z,993.56
2017-11-23T09:11:34.498Z,993.80
2017-11-23T09:12:34.520Z,993.74
2017-11-23T09:13:34.543Z,993.66
2017-11-23T09:14:34.563Z,993.63
2017-11-23T09:15:34.586Z,993.73
2017-11-23T09:16:34.607Z,993.74
2017-11-23T09:17:34.781Z,993.82
2017-11-23T09:18:34.651Z,993.80
2017-11-23T09:19:34.673Z,993.85
2017-11-23T09:20:34.696Z,993.77
2017-11-23T09:21:34.717Z,993.86
2017-11-23T09:22:34.741Z,993.73
2017-11-23T09:23:34.764Z,993.88
2017-11-23T09:24:34.783Z,993.81
2017-11-23T09:25:34.805Z,993.73
2017-11-23T09:26:34.829Z,993.84
2017-11-23T09:27:34.856Z,993.93
2017-11-23T09:28:34.876Z,993.81
2017-11-23T09:29:34.895Z,993.94
2017-11-23T09:30:34.916Z,993.90
2017-11-23T09:31:34.938Z,993.91
2017-11-23T09:32:34.961Z,993.68
2017-11-23T09:33:34.983Z,993.86
2017-11-23T09:34:35.004Z,993.81
2017-11-23T09:35:35.028Z,993.76
2017-11-23T09:36:35.051Z,993.85
2017-11-23T09:37:35.071Z,993.81
2017-11-23T09:38:35.092Z,993.84
2017-11-23T09:39:35.117Z,993.91
2017-11-23T09:40:35.138Z,993.88
2017-11-23T09:41:35.163Z,993.84
2017-11-23T09:42:35.181Z,993.82
2017-11-23T09:43:35.204Z,993.94
2017-11-23T09:44:35.226Z,993.91
2017-11-23T09:45:35.250Z,993.97
2017-11-23T09:46:35.288Z,993.91
2017-11-23T09:47:35.293Z,993.88
2017-11-23T09:48:35.314Z,993.91
2017-11-23T09:49:35.340Z,993.93
2017-11-23T09:50:35.358Z,993.87
2017-11-23T09:51:35.382Z,993.81
2017-11-23T09:52:35.403Z,993.76
2017-11-23T09:53:35.425Z,993.91
2017-11-23T09:54:35.446Z,993.88
2017-11-23T09:55:35.469Z,993.94
2017-11-23T09:56:35.490Z,993.88
2017-11-23T09:57:35.516Z,993.90
2017-11-23T09:58:35.534Z,993.97
2017-11-23T09:59:35.557Z,993.91
2017-11-23T10:00:35.580Z,993.90
2017-11-23T10:01:35.602Z,993.88
2017-11-23T10:02:35.624Z,993.88
2017-11-23T10:03:35.648Z,993.91
2017-11-23T10:04:35.671Z,993.94
2017-11-23T10:05:35.694Z,993.97
2017-11-23T10:06:35.712Z,993.86
2017-11-23T10:07:35.733Z,993.96
2017-11-23T10:08:35.780Z,993.86
2017-11-23T10:09:35.782Z,993.94
2017-11-23T10:10:35.799Z,993.96
2017-11-23T10:11:35.823Z,993.99
2017-11-23T10:12:35.844Z,994.05
2017-11-23T10:13:35.865Z,993.99
2017-11-23T10:14:35.887Z,993.93
2017-11-23T10:15:35.910Z,994.00
2017-11-23T10:16:35.932Z,993.88
2017-11-23T10:17:35.955Z,993.96
2017-11-23T10:18:35.977Z,994.04
2017-11-23T10:19:35.998Z,994.03
2017-11-23T10:20:36.021Z,994.05
2017-11-23T10:21:36.044Z,994.09
2017-11-23T10:22:36.072Z,994.10
2017-11-23T10:23:36.085Z,994.18
2017-11-23T10:24:36.113Z,994.21
2017-11-23T10:25:36.132Z,994.10
2017-11-23T10:26:36.152Z,994.09
2017-11-23T10:27:36.174Z,994.20
2017-11-23T10:28:36.198Z,994.17
2017-11-23T10:29:36.218Z,994.17
2017-11-23T10:30:36.241Z,994.17
2017-11-23T10:31:36.263Z,994.18
2017-11-23T10:32:36.286Z,994.13
2017-11-23T10:33:36.308Z,994.12
2017-11-23T10:34:36.329Z,994.24
2017-11-23T10:35:36.350Z,994.21
2017-11-23T10:36:36.381Z,994.22
2017-11-23T10:37:36.395Z,994.18
2017-11-23T10:38:36.417Z,994.28
2017-11-23T10:39:36.440Z,994.34
2017-11-23T10:40:36.474Z,994.37
2017-11-23T10:41:36.483Z,994.28
2017-11-23T10:42:36.505Z,994.36
2017-11-23T10:43:36.528Z,994.43
2017-11-23T10:44:36.559Z,994.34
2017-11-23T10:45:36.578Z,994.39
2017-11-23T10:46:36.593Z,994.38
2017-11-23T10:47:36.614Z,994.47
2017-11-23T10:48:36.637Z,994.56
2017-11-23T10:49:36.660Z,994.52
2017-11-23T10:50:36.680Z,994.53
2017-11-23T10:51:36.703Z,994.60
2017-11-23T10:52:36.724Z,994.57
2017-11-23T10:53:36.747Z,994.65
2017-11-23T10:54:36.769Z,994.61
2017-11-23T10:55:36.791Z,994.71
2017-11-23T10:56:36.814Z,994.73
2017-11-23T10:57:36.836Z,994.69
2017-11-23T10:58:36.856Z,994.68
2017-11-23T10:59:36.879Z,994.58
2017-11-23T11:00:36.901Z,994.72
2017-11-23T11:01:36.924Z,994.66
2017-11-23T11:02:36.944Z,994.65
2017-11-23T11:03:36.967Z,994.74
2017-11-23T11:04:36.989Z,994.82
2017-11-23T11:05:37.012Z,994.82
2017-11-23T11:06:37.033Z,994.73
2017-11-23T11:07:37.056Z,994.80
2017-11-23T11:08:37.082Z,994.76
2017-11-23T11:09:37.101Z,994.83
2017-11-23T11:10:37.123Z,994.85
2017-11-23T11:11:37.144Z,994.88
2017-11-23T11:12:37.166Z,994.90
2017-11-23T11:13:37.189Z,994.84
2017-11-23T11:14:37.211Z,994.82
2017-11-23T11:15:37.232Z,994.89
2017-11-23T11:16:37.256Z,995.03
2017-11-23T11:17:37.278Z,995.10
2017-11-23T11:18:37.298Z,995.03
2017-11-23T11:19:37.321Z,995.05
2017-11-23T11:20:37.344Z,995.04
2017-11-23T11:21:37.366Z,995.15
2017-11-23T11:22:37.387Z,995.16
2017-11-23T11:23:37.410Z,995.14
2017-11-23T11:24:37.431Z,995.17
2017-11-23T11:25:37.453Z,995.18
2017-11-23T11:26:37.474Z,995.18
2017-11-23T11:27:37.497Z,995.23
2017-11-23T11:28:37.519Z,995.16
2017-11-23T11:29:37.540Z,995.16
2017-11-23T11:30:37.561Z,995.22
2017-11-23T11:31:37.584Z,995.19
2017-11-23T11:32:37.606Z,995.23
2017-11-23T11:33:37.626Z,995.23
2017-11-23T11:34:37.647Z,995.21
2017-11-23T11:35:37.670Z,995.25
2017-11-23T11:36:37.697Z,995.25
2017-11-23T11:37:37.712Z,995.25
2017-11-23T11:38:37.734Z,995.30
2017-11-23T11:39:37.757Z,995.28
2017-11-23T11:40:37.781Z,995.37
2017-11-23T11:41:37.799Z,995.37
2017-11-23T11:42:37.820Z,995.33
2017-11-23T11:43:37.841Z,995.38
2017-11-23T11:44:37.862Z,995.32
2017-11-23T11:45:37.883Z,995.43
2017-11-23T11:46:37.904Z,995.42
2017-11-23T11:47:37.926Z,995.46
2017-11-23T11:48:37.947Z,995.45
2017-11-23T11:49:37.969Z,995.45
2017-11-23T11:50:37.989Z,995.44
2017-11-23T11:51:38.011Z,995.39
2017-11-23T11:52:38.032Z,995.33
2017-11-23T11:53:38.053Z,995.36
2017-11-23T11:54:38.073Z,995.37
2017-11-23T11:55:38.096Z,995.37
2017-11-23T11:56:38.117Z,995.37
2017-11-23T11:57:38.141Z,995.38
2017-11-23T11:58:38.160Z,995.46
2017-11-23T11:59:38.181Z,995.41
2017-11-23T12:00:38.202Z,995.42
2017-11-23T12:01:38.224Z,995.46
2017-11-23T12:02:38.243Z,995.45
2017-11-23T12:03:38.266Z,995.46
2017-11-23T12:04:38.287Z,995.42
2017-11-23T12:05:38.308Z,995.43
2017-11-23T12:06:38.328Z,995.37
2017-11-23T12:07:38.353Z,995.43
2017-11-23T12:08:38.373Z,995.40
2017-11-23T12:09:38.393Z,995.38
2017-11-23T12:10:38.414Z,995.44
2017-11-23T12:11:38.436Z,995.37
2017-11-23T12:12:38.457Z,995.49
2017-11-23T12:13:38.479Z,995.50
2017-11-23T12:14:38.500Z,995.43
2017-11-23T12:15:38.522Z,995.47
2017-11-23T12:16:38.543Z,995.48
2017-11-23T12:17:38.565Z,995.52
2017-11-23T12:18:38.586Z,995.50
2017-11-23T12:19:38.609Z,995.51
2017-11-23T12:20:38.632Z,995.61
2017-11-23T12:21:38.652Z,995.52
2017-11-23T12:22:38.675Z,995.55
2017-11-23T12:23:38.696Z,995.60
2017-11-23T12:24:38.719Z,995.58
2017-11-23T12:25:38.742Z,995.59
2017-11-23T12:26:38.763Z,995.54
2017-11-23T12:27:38.785Z,995.60
2017-11-23T12:28:38.808Z,995.69